Terminal Aerodrome Forecast
Issued by NWS

Home | Current Version | Previous Version | Graphics & Text | Print | Product List | Glossary On
Versions: 1 2 3 4 5 6 7 8 9 10 11 12 13
000
FTUS43 KBIS 222338
TAFJMS
TAF
KJMS 222338Z 2300/2324 15006KT P6SM SCT080
     FM231400 15009KT P6SM SCT035 BKN080
     FM231800 15012KT P6SM VCSH BKN035 OVC080
     FM232100 15010KT P6SM -SHRA SCT025 OVC035=

USA.gov is the U.S. government's official web portal to all federal, state and local government web resources and services.